Time;durP1;ratioP1;P1;durP2;ratioP2;P2;SDS_P1;SDS_P2;PMS_P1;PMS_P2;Temp;Humidity;BMP_temperature;BMP_pressure;BME280_temperature;BME280_humidity;BME280_pressure;Samples;Min_cycle;Max_cycle;Signal;HPM_P1;HPM_P2
2022/07/31 11:55:07;;;;;;;0.10;0.10;;;;;;;23.52;54.16;98336.69;5103368;27;20137;-88
2022/07/31 11:59:40;;;;;;;0.10;0.10;;;;;;;24.34;45.68;98336.28;5099547;27;20400;-83
2022/07/31 12:02:12;;;;;;;0.10;0.10;;;;;;;24.74;43.92;98343.41;5090055;28;20052;-81
2022/07/31 12:04:39;;;;;;;0.10;0.10;;;;;;;24.88;44.79;98336.59;5088541;28;20456;-82
2022/07/31 12:07:07;;;;;;;0.10;0.10;;;;;;;25.01;44.22;98335.38;5082198;28;20410;-81
2022/07/31 12:09:35;;;;;;;0.10;0.10;;;;;;;25.21;44.55;98318.63;5084170;28;20048;-79
2022/07/31 12:12:21;;;;;;;0.10;0.10;;;;;;;25.37;44.34;98325.88;5083305;28;20078;-80
2022/07/31 12:14:52;;;;;;;0.10;0.10;;;;;;;25.25;42.91;98321.66;5084017;28;20055;-81
2022/07/31 12:17:20;;;;;;;0.10;0.10;;;;;;;25.11;44.42;98321.19;5085621;28;20099;-80
2022/07/31 12:19:47;;;;;;;0.10;0.10;;;;;;;24.96;44.62;98324.50;5083702;28;20076;-80
2022/07/31 12:22:15;;;;;;;0.10;0.10;;;;;;;25.00;43.80;98324.84;5085536;28;20127;-80
2022/07/31 12:24:42;;;;;;;0.10;0.10;;;;;;;24.85;43.71;98322.72;5086059;28;20062;-81
2022/07/31 12:27:13;;;;;;;0.20;0.20;;;;;;;24.79;43.91;98315.63;5082517;28;20045;-80
2022/07/31 12:29:40;;;;;;;0.20;0.20;;;;;;;24.97;43.99;98316.13;5083705;28;20442;-79
2022/07/31 12:32:06;;;;;;;0.10;0.10;;;;;;;25.00;43.29;98319.41;5090477;28;20112;-82
2022/07/31 12:34:38;;;;;;;0.10;0.10;;;;;;;25.07;44.55;98311.94;5087820;28;20079;-82
2022/07/31 12:37:10;;;;;;;0.10;0.10;;;;;;;25.09;45.79;98307.91;5088783;28;20609;-81
2022/07/31 12:39:50;;;;;;;0.03;0.03;;;;;;;25.15;44.05;98311.50;5092782;28;20119;-80
2022/07/31 12:42:31;;;;;;;0.10;0.10;;;;;;;25.40;42.28;98308.28;5090530;28;20516;-79
2022/07/31 12:45:07;;;;;;;0.10;0.10;;;;;;;25.58;42.04;98297.13;5087025;28;20064;-81
2022/07/31 12:47:46;;;;;;;0.00;0.00;;;;;;;25.75;42.30;98304.31;5097602;28;20079;-81
2022/07/31 12:50:17;;;;;;;;;;;;;;;25.65;41.17;98296.94;5087580;28;20048;-80
2022/07/31 12:52:44;;;;;;;0.10;0.10;;;;;;;25.51;40.70;98299.19;5092063;28;19963;-80
2022/07/31 12:55:10;;;;;;;0.10;0.10;;;;;;;25.45;42.88;98292.09;5096134;28;20140;-81
2022/07/31 12:57:37;;;;;;;0.10;0.10;;;;;;;25.30;43.35;98286.50;5092533;28;20098;-80
2022/07/31 13:00:17;;;;;;;0.00;0.00;;;;;;;25.23;44.73;98291.31;5095462;28;20052;-80
2022/07/31 13:02:44;;;;;;;0.00;0.00;;;;;;;25.06;42.80;98291.34;5091034;28;20066;-80
2022/07/31 13:05:10;;;;;;;0.10;0.10;;;;;;;24.91;43.97;98292.78;5094209;28;20522;-80
2022/07/31 13:07:37;;;;;;;0.10;0.10;;;;;;;24.77;45.14;98288.81;5107312;28;20079;-80
2022/07/31 13:10:04;;;;;;;0.10;0.10;;;;;;;24.58;46.97;98288.28;5091875;28;20522;-80
2022/07/31 13:12:50;;;;;;;0.10;0.10;;;;;;;24.64;44.31;98281.84;5075497;28;20076;-80
2022/07/31 13:15:18;;;;;;;0.00;0.00;;;;;;;24.79;45.07;98278.56;5079204;28;20048;-81
2022/07/31 13:17:46;;;;;;;0.10;0.10;;;;;;;24.88;44.68;98279.78;5078101;28;20072;-79
2022/07/31 13:20:15;;;;;;;0.00;0.00;;;;;;;24.81;44.37;98271.00;5077466;28;20106;-81
2022/07/31 13:22:42;;;;;;;0.10;0.10;;;;;;;24.77;43.13;98266.34;5074079;28;20135;-80
2022/07/31 13:25:09;;;;;;;0.10;0.10;;;;;;;24.69;45.22;98260.28;5079046;28;20410;-81
2022/07/31 13:27:35;;;;;;;0.10;0.10;;;;;;;24.73;45.90;98257.91;5079914;28;20141;-80
2022/07/31 13:30:03;;;;;;;0.10;0.10;;;;;;;24.75;44.91;98256.59;5077966;28;20075;-79
2022/07/31 13:32:30;;;;;;;0.10;0.10;;;;;;;24.79;45.25;98248.78;5075116;28;20048;-81
2022/07/31 13:34:57;;;;;;;0.10;0.10;;;;;;;24.92;43.83;98245.72;5073347;28;20045;-80
2022/07/31 13:37:45;;;;;;;0.10;0.10;;;;;;;25.10;44.10;98238.34;5075169;28;20584;-82
2022/07/31 13:40:12;;;;;;;0.10;0.10;;;;;;;25.32;43.65;98236.44;5079732;28;20063;-81
2022/07/31 13:42:39;;;;;;;0.10;0.10;;;;;;;25.39;42.38;98220.00;5077009;28;20057;-81
2022/07/31 13:45:05;;;;;;;0.00;0.00;;;;;;;25.27;43.53;98222.03;5073715;28;20464;-81
2022/07/31 13:47:34;;;;;;;0.10;0.10;;;;;;;25.45;43.64;98218.16;5079723;28;20053;-79
2022/07/31 13:50:16;;;;;;;0.10;0.10;;;;;;;25.49;42.91;98214.69;5074184;28;20056;-81
2022/07/31 13:52:43;;;;;;;0.08;0.08;;;;;;;25.53;42.15;98218.50;5076469;28;20135;-81
2022/07/31 13:55:09;;;;;;;0.10;0.10;;;;;;;25.45;43.66;98208.16;5081018;28;20063;-80
2022/07/31 13:57:36;;;;;;;0.10;0.10;;;;;;;25.34;43.40;98209.13;5076265;28;20052;-79
2022/07/31 14:00:03;;;;;;;0.10;0.10;;;;;;;25.35;41.87;98211.56;5074576;28;20075;-80
2022/07/31 14:02:29;;;;;;;0.10;0.10;;;;;;;25.20;44.08;98206.00;5079353;28;20135;-80
2022/07/31 14:04:56;;;;;;;0.10;0.10;;;;;;;25.06;44.58;98213.66;5080795;28;20556;-80
2022/07/31 14:07:22;;;;;;;0.10;0.10;;;;;;;25.04;44.46;98207.69;5073175;28;20088;-80
2022/07/31 14:10:09;;;;;;;0.00;0.00;;;;;;;25.17;44.03;98201.06;5073308;28;20414;-80
2022/07/31 14:12:35;;;;;;;0.10;0.10;;;;;;;25.31;44.39;98199.63;5074046;28;20125;-81
2022/07/31 14:15:03;;;;;;;0.00;0.00;;;;;;;25.66;41.51;98192.88;5074127;28;20059;-79
2022/07/31 14:17:30;;;;;;;0.10;0.10;;;;;;;25.62;42.66;98200.72;5075657;28;20503;-80
2022/07/31 14:19:57;;;;;;;0.10;0.10;;;;;;;25.53;43.60;98202.25;5071561;28;20103;-79
2022/07/31 14:22:24;;;;;;;0.10;0.10;;;;;;;25.56;43.38;98196.31;5070780;28;20111;-79
2022/07/31 14:24:51;;;;;;;0.00;0.00;;;;;;;25.67;44.39;98196.41;5073516;28;20533;-79
2022/07/31 14:27:18;;;;;;;0.10;0.10;;;;;;;25.71;42.26;98195.66;5074038;28;20155;-80
2022/07/31 14:29:45;;;;;;;0.10;0.10;;;;;;;25.83;41.97;98190.88;5071594;28;20106;-79
2022/07/31 14:32:12;;;;;;;0.10;0.10;;;;;;;25.93;41.37;98189.34;5077198;28;20082;-79
2022/07/31 14:34:38;;;;;;;0.10;0.10;;;;;;;25.95;41.45;98187.19;5076124;28;20098;-80
2022/07/31 14:37:05;;;;;;;0.00;0.00;;;;;;;25.72;42.42;98185.63;5062370;28;20072;-80
2022/07/31 14:39:32;;;;;;;0.10;0.10;;;;;;;25.80;41.31;98185.13;5073765;28;20036;-80
2022/07/31 14:41:58;;;;;;;0.00;0.00;;;;;;;25.65;43.54;98183.16;5078112;28;20316;-80
2022/07/31 14:44:25;;;;;;;0.10;0.10;;;;;;;25.48;43.53;98183.25;5077434;28;20080;-80
2022/07/31 14:46:54;;;;;;;0.10;0.10;;;;;;;25.38;42.70;98184.00;5074053;28;20057;-80
2022/07/31 14:49:21;;;;;;;0.13;0.13;;;;;;;25.34;44.21;98180.16;5076132;28;20052;-79
2022/07/31 14:51:47;;;;;;;0.10;0.10;;;;;;;25.44;41.94;98171.31;5069400;28;20053;-80
2022/07/31 14:54:14;;;;;;;0.10;0.10;;;;;;;25.49;42.38;98168.66;5074873;28;20123;-80
2022/07/31 14:56:40;;;;;;;0.10;0.10;;;;;;;25.54;44.28;98160.56;5075033;28;20056;-82
2022/07/31 14:59:28;;;;;;;0.10;0.10;;;;;;;25.51;42.66;98168.38;5075351;28;20052;-81
2022/07/31 15:01:55;;;;;;;0.10;0.10;;;;;;;25.40;45.40;98164.75;5080546;28;20053;-81
2022/07/31 15:04:22;;;;;;;0.00;0.00;;;;;;;25.30;45.46;98154.66;5071429;28;20056;-82
2022/07/31 15:06:48;;;;;;;0.10;0.10;;;;;;;25.26;44.90;98167.06;5057623;28;20080;-81
2022/07/31 15:09:29;;;;;;;0.10;0.10;;;;;;;25.13;45.98;98159.34;5077907;28;20094;-79
2022/07/31 15:11:56;;;;;;;0.10;0.10;;;;;;;25.12;44.83;98158.53;5078049;28;20055;-81
2022/07/31 15:14:27;;;;;;;0.10;0.10;;;;;;;24.78;49.84;98165.16;5072025;28;20059;-81
2022/07/31 15:16:54;;;;;;;0.10;0.10;;;;;;;24.32;50.03;98159.97;5075976;28;20048;-83
2022/07/31 15:19:20;;;;;;;0.10;0.10;;;;;;;24.09;50.75;98153.72;5074102;28;20564;-81
2022/07/31 15:21:47;;;;;;;0.10;0.10;;;;;;;24.22;47.62;98155.22;5074276;28;20076;-82
2022/07/31 15:24:34;;;;;;;0.00;0.00;;;;;;;24.18;46.19;98153.31;5080064;28;20066;-81
2022/07/31 15:27:00;;;;;;;0.00;0.00;;;;;;;24.05;48.78;98154.47;5077340;28;20060;-81
2022/07/31 15:29:27;;;;;;;0.10;0.10;;;;;;;24.19;45.86;98152.22;5075939;28;20048;-81
2022/07/31 15:32:13;;;;;;;0.10;0.10;;;;;;;24.32;44.86;98159.97;5074798;28;20057;-82
2022/07/31 15:34:40;;;;;;;0.10;0.10;;;;;;;24.40;45.29;98150.59;5073634;28;20427;-82
2022/07/31 15:37:09;;;;;;;0.00;0.00;;;;;;;24.51;45.80;98153.25;5074288;28;20072;-83
2022/07/31 15:39:45;;;;;;;0.10;0.10;;;;;;;24.70;47.25;98150.22;5077565;28;20552;-80
2022/07/31 15:42:28;;;;;;;0.00;0.00;;;;;;;24.81;45.55;98140.31;5072357;28;20072;-82
2022/07/31 15:44:55;;;;;;;0.10;0.10;;;;;;;25.01;44.29;98145.94;5078132;28;20059;-79
2022/07/31 15:47:21;;;;;;;0.10;0.10;;;;;;;25.00;44.44;98143.50;5075741;28;20061;-82
2022/07/31 15:49:48;;;;;;;0.15;0.15;;;;;;;25.21;41.83;98148.06;5077049;28;20068;-82
2022/07/31 15:52:15;;;;;;;0.00;0.00;;;;;;;25.31;42.45;98140.06;5076112;28;20055;-79
2022/07/31 15:54:45;;;;;;;0.00;0.00;;;;;;;25.25;44.12;98141.09;5071703;28;20056;-82
2022/07/31 15:57:12;;;;;;;0.10;0.10;;;;;;;25.26;43.29;98134.59;5074927;28;20076;-81
2022/07/31 15:59:40;;;;;;;0.00;0.00;;;;;;;25.16;43.66;98127.19;5071840;28;20049;-82
2022/07/31 16:02:06;;;;;;;0.10;0.10;;;;;;;25.20;43.46;98135.63;5077446;28;20108;-81
2022/07/31 16:04:33;;;;;;;0.00;0.00;;;;;;;25.24;44.05;98134.03;5050451;28;20550;-82
2022/07/31 16:07:01;;;;;;;0.00;0.00;;;;;;;25.38;43.18;98123.56;5068807;28;20048;-81
2022/07/31 16:09:48;;;;;;;0.03;0.03;;;;;;;25.67;41.91;98125.97;5071749;28;20041;-80
2022/07/31 16:12:34;;;;;;;0.10;0.10;;;;;;;25.46;40.60;98125.00;5075535;28;20077;-81
2022/07/31 16:15:02;;;;;;;0.00;0.00;;;;;;;25.37;42.90;98122.75;5018732;28;20113;-81
2022/07/31 16:17:39;;;;;;;0.10;0.10;;;;;;;25.28;42.32;98123.50;5061033;28;20477;-80
2022/07/31 16:20:07;;;;;;;0.10;0.10;;;;;;;25.33;42.79;98120.81;5065232;28;20135;-81
2022/07/31 16:22:37;;;;;;;0.10;0.10;;;;;;;25.31;44.89;98112.16;5062329;28;20049;-83
2022/07/31 16:25:04;;;;;;;0.10;0.10;;;;;;;25.32;42.78;98113.78;4893427;28;65007;-81
2022/07/31 16:27:31;;;;;;;0.10;0.10;;;;;;;25.23;41.61;98113.44;5053918;28;20532;-81
2022/07/31 16:29:58;;;;;;;0.10;0.10;;;;;;;25.20;44.36;98111.25;5052484;28;20073;-81
2022/07/31 16:32:28;;;;;;;0.10;0.10;;;;;;;25.12;44.85;98112.50;5049800;28;20144;-79
2022/07/31 16:34:54;;;;;;;0.10;0.10;;;;;;;25.08;43.67;98105.97;5048605;28;20412;-81
2022/07/31 16:37:26;;;;;;;0.10;0.10;;;;;;;25.10;44.37;98105.72;5049038;28;20053;-82
2022/07/31 16:40:13;;;;;;;0.00;0.00;;;;;;;25.02;44.09;98095.34;5052421;28;20041;-79
2022/07/31 16:43:04;;;;;;;0.10;0.10;;;;;;;25.18;40.82;98099.88;5054554;28;20143;-81
2022/07/31 16:45:51;;;;;;;0.10;0.10;;;;;;;25.01;44.14;98107.22;5054203;28;20141;-82
2022/07/31 16:48:18;;;;;;;0.10;0.10;;;;;;;24.99;43.73;98104.81;5060116;28;20045;-81
2022/07/31 16:50:45;;;;;;;0.10;0.10;;;;;;;24.90;42.78;98096.31;5060266;28;20051;-83
2022/07/31 16:53:27;;;;;;;0.10;0.10;;;;;;;24.74;44.88;98102.63;5060114;28;20491;-80
2022/07/31 16:56:14;;;;;;;0.10;0.10;;;;;;;24.79;44.16;98102.69;5055074;28;20116;-81
2022/07/31 16:58:42;;;;;;;0.10;0.10;;;;;;;24.83;45.04;98100.28;5056093;28;20138;-81
2022/07/31 17:01:08;;;;;;;0.10;0.10;;;;;;;24.91;44.53;98108.78;5056341;28;20103;-81
2022/07/31 17:06:50;;;;;;;0.10;0.10;;;;;;;25.19;42.15;98101.47;5059082;28;20040;-82
2022/07/31 17:09:17;;;;;;;0.10;0.10;;;;;;;25.18;43.74;98099.88;5030780;28;20132;-80
2022/07/31 17:11:46;;;;;;;0.10;0.10;;;;;;;25.32;43.52;98097.53;5056188;28;20055;-83
2022/07/31 17:14:14;;;;;;;0.10;0.10;;;;;;;25.39;42.93;98093.53;5064108;28;20519;-82
2022/07/31 17:16:40;;;;;;;0.10;0.10;;;;;;;25.30;44.08;98100.50;5059612;28;20495;-81
2022/07/31 17:19:13;;;;;;;0.10;0.10;;;;;;;25.29;42.64;98098.06;5067820;28;20037;-85
2022/07/31 17:21:40;;;;;;;0.10;0.10;;;;;;;25.10;44.53;98101.13;5054434;28;20483;-82
2022/07/31 17:24:10;;;;;;;0.00;0.00;;;;;;;24.88;44.15;98093.06;5062432;28;20538;-81
2022/07/31 17:26:42;;;;;;;0.10;0.10;;;;;;;24.91;44.35;98097.97;5057930;28;20329;-81
2022/07/31 17:29:08;;;;;;;0.10;0.10;;;;;;;24.82;44.60;98101.38;5040758;28;20479;-79
2022/07/31 17:31:35;;;;;;;0.10;0.10;;;;;;;24.79;44.54;98101.88;5053435;28;20045;-80
2022/07/31 17:34:02;;;;;;;0.10;0.10;;;;;;;24.76;45.03;98105.91;5050010;28;20168;-81
2022/07/31 17:36:35;;;;;;;0.10;0.10;;;;;;;24.66;46.76;98109.31;5048908;28;20052;-82
2022/07/31 17:39:02;;;;;;;0.00;0.00;;;;;;;24.68;45.35;98104.47;5053639;28;20076;-82
2022/07/31 17:41:28;;;;;;;0.00;0.00;;;;;;;24.60;45.46;98106.81;5053511;28;20074;-80
2022/07/31 17:43:55;;;;;;;0.10;0.10;;;;;;;24.60;45.63;98115.75;5051483;28;20635;-81
2022/07/31 17:46:22;;;;;;;0.10;0.10;;;;;;;24.58;46.01;98114.34;5051261;28;20708;-80
2022/07/31 17:49:04;;;;;;;0.10;0.10;;;;;;;24.44;46.05;98109.34;5049554;28;20136;-82
2022/07/31 17:51:31;;;;;;;0.10;0.10;;;;;;;24.44;47.24;98112.03;5053067;28;20070;-80
2022/07/31 17:53:58;;;;;;;0.10;0.10;;;;;;;24.36;46.91;98117.03;5057189;28;20132;-80
2022/07/31 17:56:25;;;;;;;0.10;0.10;;;;;;;24.32;46.67;98116.72;5052542;28;20132;-82
2022/07/31 17:58:52;;;;;;;0.10;0.10;;;;;;;24.19;48.79;98107.09;5056193;28;20064;-81
2022/07/31 18:01:19;;;;;;;0.10;0.10;;;;;;;24.17;48.38;98117.34;5056303;28;20053;-82
2022/07/31 18:03:51;;;;;;;0.00;0.00;;;;;;;24.17;47.00;98116.50;5050489;28;20085;-81
2022/07/31 18:06:17;;;;;;;0.10;0.10;;;;;;;24.07;48.17;98120.72;5059466;28;20049;-81
2022/07/31 18:08:46;;;;;;;0.10;0.10;;;;;;;24.03;48.26;98124.16;5063170;28;20078;-81
2022/07/31 18:11:12;;;;;;;0.10;0.10;;;;;;;23.94;49.06;98121.09;5059252;28;20048;-84
2022/07/31 18:13:40;;;;;;;0.10;0.10;;;;;;;23.88;49.76;98128.28;5059002;28;20048;-84
2022/07/31 18:16:14;;;;;;;0.10;0.10;;;;;;;24.01;48.72;98124.44;5053405;28;20049;-83
2022/07/31 18:18:41;;;;;;;0.10;0.10;;;;;;;24.00;48.93;98121.97;5056814;28;20519;-82
2022/07/31 18:21:08;;;;;;;0.10;0.10;;;;;;;23.98;49.33;98118.69;5049905;28;20705;-84
2022/07/31 18:23:34;;;;;;;0.10;0.10;;;;;;;23.96;53.31;98124.34;5051722;28;20056;-84
2022/07/31 18:26:02;;;;;;;0.10;0.10;;;;;;;23.89;55.00;98121.00;4894833;28;362641;-82
2022/07/31 18:28:30;;;;;;;0.10;0.10;;;;;;;23.79;54.97;98123.56;5060062;28;20053;-82
2022/07/31 18:31:00;;;;;;;0.00;0.00;;;;;;;23.67;56.26;98116.34;5056949;28;20049;-82
2022/07/31 18:33:27;;;;;;;0.10;0.10;;;;;;;23.71;52.81;98119.34;5059707;28;20087;-81
2022/07/31 18:35:54;;;;;;;0.10;0.10;;;;;;;23.71;52.44;98127.44;5037896;28;20053;-82
2022/07/31 18:38:21;;;;;;;0.10;0.10;;;;;;;23.70;51.81;98125.00;5055395;28;20468;-82
2022/07/31 18:40:48;;;;;;;0.00;0.00;;;;;;;23.67;53.12;98126.28;5058768;28;20045;-83
2022/07/31 18:43:14;;;;;;;0.05;0.05;;;;;;;23.57;51.45;98126.97;5057179;28;20056;-83
2022/07/31 18:45:41;;;;;;;0.10;0.10;;;;;;;23.56;53.36;98132.59;5059970;28;20056;-83
2022/07/31 18:48:08;;;;;;;0.10;0.10;;;;;;;23.57;54.40;98126.97;5056663;28;20072;-83
2022/07/31 18:50:34;;;;;;;0.00;0.00;;;;;;;23.45;53.93;98128.94;5054833;28;20049;-82
2022/07/31 18:53:21;;;;;;;0.10;0.10;;;;;;;23.48;49.85;98131.13;5051850;28;20116;-81
2022/07/31 18:55:48;;;;;;;0.10;0.10;;;;;;;23.38;50.78;98139.06;4989568;28;20079;-82
2022/07/31 18:58:14;;;;;;;0.10;0.10;;;;;;;23.43;50.52;98137.28;5052395;28;20053;-83
2022/07/31 19:00:41;;;;;;;0.00;0.00;;;;;;;23.37;51.40;98140.13;5045458;28;20360;-81
2022/07/31 19:03:08;;;;;;;0.00;0.00;;;;;;;23.35;51.49;98140.38;5048936;28;20060;-82
2022/07/31 19:05:35;;;;;;;0.10;0.10;;;;;;;23.34;50.41;98138.75;5048667;28;20052;-81
2022/07/31 19:08:02;;;;;;;0.10;0.10;;;;;;;23.30;50.97;98148.41;5051310;28;20104;-82
2022/07/31 19:10:29;;;;;;;0.10;0.10;;;;;;;23.23;52.06;98143.16;5050231;28;20117;-83
2022/07/31 19:12:57;;;;;;;0.00;0.00;;;;;;;23.23;50.96;98140.44;5047360;28;20087;-82
2022/07/31 19:15:23;;;;;;;0.00;0.00;;;;;;;23.23;50.54;98143.16;5045904;28;20060;-83
2022/07/31 19:17:50;;;;;;;0.10;0.10;;;;;;;23.20;51.03;98157.13;5041605;28;20474;-82
2022/07/31 19:20:18;;;;;;;0.00;0.00;;;;;;;23.16;50.53;98155.97;5047141;28;20081;-82
2022/07/31 19:23:05;;;;;;;0.10;0.10;;;;;;;23.06;51.48;98157.66;5051838;28;20064;-81
2022/07/31 19:25:38;;;;;;;0.10;0.10;;;;;;;23.07;50.98;98160.13;5052881;28;20133;-82
2022/07/31 19:28:25;;;;;;;0.00;0.00;;;;;;;22.96;52.39;98160.94;5046666;28;20156;-82
2022/07/31 19:30:52;;;;;;;0.00;0.00;;;;;;;22.85;51.84;98161.81;5040815;28;20049;-82
2022/07/31 19:33:19;;;;;;;0.10;0.10;;;;;;;22.89;52.23;98153.00;5043242;28;20084;-81
2022/07/31 19:35:46;;;;;;;0.00;0.00;;;;;;;22.78;51.78;98154.69;5043279;28;20068;-82
2022/07/31 19:38:26;;;;;;;0.10;0.10;;;;;;;22.84;52.71;98162.88;5047817;28;20338;-81
2022/07/31 19:40:53;;;;;;;0.10;0.10;;;;;;;22.84;50.37;98171.78;5049935;28;20155;-81
2022/07/31 19:43:19;;;;;;;0.10;0.10;;;;;;;22.78;52.37;98172.75;5050127;28;20050;-82
2022/07/31 19:45:46;;;;;;;0.10;0.10;;;;;;;22.72;51.10;98173.69;5053824;28;20057;-80
2022/07/31 19:48:35;;;;;;;0.10;0.10;;;;;;;22.72;51.11;98171.84;5044524;28;20402;-81
2022/07/31 19:51:02;;;;;;;0.00;0.00;;;;;;;22.67;51.46;98178.97;5046010;28;20136;-82
2022/07/31 19:53:29;;;;;;;0.10;0.10;;;;;;;22.58;52.20;98178.53;5050250;28;20541;-81
2022/07/31 19:55:55;;;;;;;0.10;0.10;;;;;;;22.46;52.75;98178.59;5043754;28;20056;-81
2022/07/31 19:58:22;;;;;;;0.10;0.10;;;;;;;22.50;52.00;98181.63;5046863;28;20049;-83
2022/07/31 20:00:49;;;;;;;0.10;0.10;;;;;;;22.46;51.83;98169.66;5043696;28;20068;-82
2022/07/31 20:03:15;;;;;;;0.10;0.10;;;;;;;22.47;51.32;98185.59;5047482;28;20128;-81
2022/07/31 20:05:42;;;;;;;0.10;0.10;;;;;;;22.45;53.33;98181.50;5043294;28;20068;-81
2022/07/31 20:08:09;;;;;;;0.10;0.10;;;;;;;22.46;50.65;98183.13;5044443;28;20085;-82
2022/07/31 20:10:35;;;;;;;0.05;0.05;;;;;;;22.46;50.41;98185.81;5049293;28;20045;-82
2022/07/31 20:13:02;;;;;;;0.10;0.10;;;;;;;22.40;50.20;98189.47;5054614;28;20096;-81
2022/07/31 20:15:29;;;;;;;0.00;0.00;;;;;;;22.46;50.46;98197.44;5044998;28;20499;-82
2022/07/31 20:18:19;;;;;;;0.10;0.10;;;;;;;22.49;50.41;98190.78;5052332;28;20059;-81
2022/07/31 20:20:54;;;;;;;0.00;0.00;;;;;;;22.55;50.31;98192.50;5048769;28;20410;-82
2022/07/31 20:23:22;;;;;;;0.00;0.00;;;;;;;22.53;50.79;98194.63;5044856;28;20107;-81
2022/07/31 20:25:49;;;;;;;0.05;0.05;;;;;;;22.54;49.73;98196.28;5045266;28;20117;-81
2022/07/31 20:28:15;;;;;;;0.10;0.10;;;;;;;22.44;49.20;98196.06;5049604;28;20064;-81
2022/07/31 20:30:42;;;;;;;0.10;0.10;;;;;;;22.36;49.44;98202.63;5054370;28;20072;-81
2022/07/31 20:33:08;;;;;;;0.10;0.10;;;;;;;22.33;49.60;98198.53;5050611;28;20168;-81
2022/07/31 20:35:40;;;;;;;0.10;0.10;;;;;;;22.31;50.70;98200.63;5048017;28;20136;-80
2022/07/31 20:38:16;;;;;;;0.10;0.10;;;;;;;22.30;51.04;98199.00;5047114;28;20057;-81
2022/07/31 20:40:45;;;;;;;0.10;0.10;;;;;;;22.24;50.07;98199.91;5045527;28;20060;-80
2022/07/31 20:43:20;;;;;;;0.10;0.10;;;;;;;22.22;50.28;98210.13;5050118;28;20041;-82
2022/07/31 20:45:46;;;;;;;0.00;0.00;;;;;;;22.23;49.58;98208.25;5064662;28;20148;-81
2022/07/31 20:48:14;;;;;;;0.00;0.00;;;;;;;22.21;49.56;98208.47;5046294;28;20072;-82
2022/07/31 20:50:41;;;;;;;0.13;0.13;;;;;;;22.17;51.40;98211.84;5037735;28;20112;-81
2022/07/31 20:53:09;;;;;;;0.00;0.00;;;;;;;22.15;49.27;98212.09;5047262;28;20052;-80
2022/07/31 20:55:36;;;;;;;0.00;0.00;;;;;;;22.15;49.28;98217.47;5043005;28;20434;-82
2022/07/31 20:58:02;;;;;;;0.10;0.10;;;;;;;22.20;48.73;98219.50;5042863;28;20132;-81
2022/07/31 21:00:31;;;;;;;0.10;0.10;;;;;;;22.12;50.75;98215.25;5047345;28;20055;-81
2022/07/31 21:02:57;;;;;;;0.10;0.10;;;;;;;22.18;49.28;98219.69;5051608;28;20045;-81
2022/07/31 21:05:28;;;;;;;0.10;0.10;;;;;;;22.23;48.28;98211.75;5048432;28;20110;-81
2022/07/31 21:07:55;;;;;;;0.03;0.03;;;;;;;22.20;49.75;98224.91;5062488;28;20091;-82
2022/07/31 21:10:25;;;;;;;0.10;0.10;;;;;;;22.17;48.91;98218.06;5067389;28;20045;-82
2022/07/31 21:12:55;;;;;;;0.10;0.10;;;;;;;22.12;50.02;98221.47;5047374;28;20064;-81
2022/07/31 21:15:21;;;;;;;0.10;0.10;;;;;;;22.11;48.75;98222.50;5061929;28;20045;-81
2022/07/31 21:18:07;;;;;;;0.00;0.00;;;;;;;22.14;48.78;98221.22;5044757;28;20056;-81
2022/07/31 21:20:34;;;;;;;0.00;0.00;;;;;;;22.14;48.69;98224.75;5049566;28;20109;-82
2022/07/31 21:23:19;;;;;;;0.10;0.10;;;;;;;22.09;48.58;98229.16;5048549;28;20483;-82
2022/07/31 21:25:46;;;;;;;0.10;0.10;;;;;;;22.05;49.68;98218.03;5051133;28;20137;-83
2022/07/31 21:28:13;;;;;;;0.10;0.10;;;;;;;22.17;48.87;98225.31;5046741;28;20073;-81
2022/07/31 21:30:39;;;;;;;0.10;0.10;;;;;;;22.16;49.13;98227.19;5059001;28;20105;-83
2022/07/31 21:33:07;;;;;;;0.05;0.05;;;;;;;22.12;49.89;98226.03;5041877;28;20128;-82
2022/07/31 21:35:34;;;;;;;0.00;0.00;;;;;;;22.08;49.66;98228.34;5046911;28;20120;-82
2022/07/31 21:38:03;;;;;;;0.10;0.10;;;;;;;22.09;49.47;98229.16;5051758;28;20423;-82
2022/07/31 21:40:32;;;;;;;0.10;0.10;;;;;;;22.04;49.47;98231.78;5047587;28;20064;-82
2022/07/31 21:43:02;;;;;;;0.10;0.10;;;;;;;22.01;49.84;98229.53;5050035;28;20045;-82
2022/07/31 21:45:32;;;;;;;0.10;0.10;;;;;;;21.92;50.42;98237.13;5045849;28;20113;-82
2022/07/31 21:48:21;;;;;;;0.10;0.10;;;;;;;21.92;49.85;98237.13;5046846;28;20123;-81
2022/07/31 21:50:48;;;;;;;0.10;0.10;;;;;;;21.92;49.81;98239.81;5050580;28;20140;-82
2022/07/31 21:53:14;;;;;;;0.00;0.00;;;;;;;21.91;50.00;98241.69;5050203;28;20200;-83
2022/07/31 21:55:41;;;;;;;0.05;0.05;;;;;;;21.82;50.71;98237.69;5047997;28;20136;-81
2022/07/31 21:58:08;;;;;;;0.00;0.00;;;;;;;21.82;51.07;98242.25;5048590;28;20041;-81
2022/07/31 22:00:35;;;;;;;0.10;0.10;;;;;;;21.81;49.96;98243.31;5048503;28;20056;-81
2022/07/31 22:03:02;;;;;;;0.15;0.15;;;;;;;21.81;50.14;98244.13;5042291;28;20052;-81
2022/07/31 22:08:14;;;;;;;0.10;0.10;;;;;;;21.84;49.93;98251.75;5049434;28;20049;-82
2022/07/31 22:10:41;;;;;;;0.00;0.00;;;;;;;21.76;50.34;98252.09;5052984;28;20049;-82
2022/07/31 22:13:08;;;;;;;0.10;0.10;;;;;;;21.74;50.25;98251.50;5050694;28;20129;-82
2022/07/31 22:15:34;;;;;;;0.10;0.10;;;;;;;21.70;51.27;98253.03;5051935;28;20087;-81
2022/07/31 22:18:21;;;;;;;0.10;0.10;;;;;;;21.67;49.94;98251.59;5049973;28;20052;-83
2022/07/31 22:20:48;;;;;;;0.10;0.10;;;;;;;21.67;50.67;98258.88;5043535;28;20240;-81
2022/07/31 22:23:14;;;;;;;0.10;0.10;;;;;;;21.63;51.15;98255.81;5033211;28;20080;-80
2022/07/31 22:25:41;;;;;;;0.10;0.10;;;;;;;21.58;51.30;98257.53;5053793;28;20150;-82
2022/07/31 22:28:08;;;;;;;0.00;0.00;;;;;;;21.52;52.12;98259.28;5050498;28;20561;-80
2022/07/31 22:30:34;;;;;;;0.10;0.10;;;;;;;21.45;51.17;98258.56;5048638;28;20139;-82
2022/07/31 22:33:01;;;;;;;0.00;0.00;;;;;;;21.40;51.87;98259.22;5047996;28;20083;-81
2022/07/31 22:35:29;;;;;;;0.10;0.10;;;;;;;21.36;52.06;98257.22;5044085;28;20061;-82
2022/07/31 22:37:55;;;;;;;0.10;0.10;;;;;;;21.35;51.61;98255.56;5041269;28;20515;-83
2022/07/31 22:40:23;;;;;;;0.00;0.00;;;;;;;21.32;51.70;98259.53;5047867;28;20148;-81
2022/07/31 22:42:50;;;;;;;0.10;0.10;;;;;;;21.27;52.54;98256.69;5047736;28;20065;-81
2022/07/31 22:45:23;;;;;;;0.10;0.10;;;;;;;21.25;52.43;98262.31;5046154;28;20075;-82
2022/07/31 22:47:50;;;;;;;0.10;0.10;;;;;;;21.30;52.61;98264.31;5043074;28;20054;-81
2022/07/31 22:50:17;;;;;;;0.10;0.10;;;;;;;21.26;51.80;98261.25;5042146;28;20103;-82
2022/07/31 22:52:43;;;;;;;0.10;0.10;;;;;;;21.24;52.47;98259.84;5047315;28;20098;-83
2022/07/31 22:55:10;;;;;;;0.10;0.10;;;;;;;21.23;51.79;98258.22;5041615;28;20080;-81
2022/07/31 22:57:39;;;;;;;0.00;0.00;;;;;;;21.24;52.37;98255.28;5062610;28;20053;-83
2022/07/31 23:00:08;;;;;;;0.10;0.10;;;;;;;21.22;52.45;98261.94;5057976;28;20053;-81
2022/07/31 23:02:35;;;;;;;0.10;0.10;;;;;;;21.21;52.76;98260.28;5060244;28;20053;-83
2022/07/31 23:05:02;;;;;;;0.00;0.00;;;;;;;21.15;52.67;98264.72;5059550;28;20056;-80
2022/07/31 23:07:29;;;;;;;0.30;0.30;;;;;;;21.14;53.05;98271.13;5047385;28;20048;-82
2022/07/31 23:09:55;;;;;;;2.70;2.50;;;;;;;21.18;53.17;98266.13;5046531;28;20053;-81
2022/07/31 23:12:22;;;;;;;0.55;0.55;;;;;;;21.19;51.92;98268.59;5045650;28;20113;-81
2022/07/31 23:14:55;;;;;;;0.10;0.10;;;;;;;21.16;53.01;98273.59;5044828;28;20061;-82
2022/07/31 23:17:21;;;;;;;0.10;0.10;;;;;;;21.12;53.33;98275.94;5043013;28;20112;-81
2022/07/31 23:19:49;;;;;;;0.10;0.10;;;;;;;21.08;52.71;98279.28;5046361;28;20041;-80
2022/07/31 23:22:20;;;;;;;0.00;0.00;;;;;;;21.09;53.33;98280.94;5047418;28;20098;-82
2022/07/31 23:25:00;;;;;;;0.10;0.10;;;;;;;21.02;53.90;98276.47;5036967;28;20430;-82
2022/07/31 23:27:27;;;;;;;0.00;0.00;;;;;;;21.02;53.57;98283.72;5037453;28;20140;-80
2022/07/31 23:29:53;;;;;;;1.55;1.55;;;;;;;21.01;53.04;98274.81;5040073;28;20099;-80
2022/07/31 23:32:20;;;;;;;0.10;0.10;;;;;;;21.02;53.44;98273.78;5056406;28;20082;-81
2022/07/31 23:34:47;;;;;;;0.10;0.10;;;;;;;20.98;53.37;98275.25;5040465;28;20055;-82
2022/07/31 23:37:13;;;;;;;0.10;0.10;;;;;;;20.95;53.48;98275.72;5043981;28;20056;-81
2022/07/31 23:39:40;;;;;;;0.10;0.10;;;;;;;20.90;54.13;98272.06;5046725;28;20081;-81
2022/07/31 23:44:51;;;;;;;3.40;3.20;;;;;;;20.83;54.01;98275.66;5041410;28;20074;-80
2022/07/31 23:47:18;;;;;;;0.00;0.00;;;;;;;20.81;53.79;98282.28;5045605;28;20064;-81
2022/07/31 23:49:45;;;;;;;0.20;0.20;;;;;;;20.76;54.00;98271.38;5040103;28;20041;-81